Villa Cisneros, Western Sahara
Current Conditions -  °F | °C
As of 6:00 AM on Thursday 29 Jan 2015 (Local Time) from GMMH Reporting Station
Clear Clear  
Wind Chill: 55°   Ceiling: Unl
Heat Index: 55°   Visibility: 5mi
Dew Point: 50°   Wind: 23mph
Humidity: 82%   Direction: 20°NNE
Pressure: 30.21"   Gusts: NA
Location:  23.7°N, 15.94°W
Report Text: GMMH 290600Z 02020KT 8000 NSC 13/10 Q1023 NOSIG
Loading
Personal Weather Stations






























Interactive Weather Map New forecast layout! Learn more

10-Day Weather Forecast

Advertisements
Track Severe Weather on mobile